Time;durP1;ratioP1;P1;durP2;ratioP2;P2;SDS_P1;SDS_P2;PMS_P1;PMS_P2;Temp;Humidity;BMP_temperature;BMP_pressure;BME280_temperature;BME280_humidity;BME280_pressure;Samples;Min_cycle;Max_cycle;Signal;HPM_P1;HPM_P2
2023/09/14 00:03:52;;;;;;;0.10;0.10;;;;;;;-145.06;100.00;56145.00;10454389;28;20885;-67
2023/09/14 00:08:53;;;;;;;0.10;0.10;;;;;;;-145.06;100.00;56118.66;10447884;28;20040;-67
2023/09/14 00:13:53;;;;;;;0.10;0.10;;;;;;;-145.06;100.00;56130.81;10460494;28;20275;-67
2023/09/14 00:18:55;;;;;;;0.00;0.00;;;;;;;-145.06;100.00;56110.56;10443290;28;20052;-67
2023/09/14 00:23:55;;;;;;;0.00;0.00;;;;;;;-145.06;100.00;56100.41;10465242;28;20339;-68
2023/09/14 00:28:55;;;;;;;0.00;0.00;;;;;;;-145.06;100.00;56102.44;10440436;28;20402;-67
2023/09/14 00:33:56;;;;;;;0.10;0.10;;;;;;;-145.06;100.00;56120.69;10437813;28;20029;-67
2023/09/14 00:38:57;;;;;;;0.05;0.05;;;;;;;-145.06;100.00;56106.50;10450183;28;20601;-67
2023/09/14 00:43:57;;;;;;;0.10;0.10;;;;;;;-145.06;100.00;56110.56;10465804;28;20024;-68
2023/09/14 00:48:58;;;;;;;0.10;0.10;;;;;;;-145.06;100.00;56145.00;10460254;28;20426;-67
2023/09/14 00:53:59;;;;;;;0.10;0.10;;;;;;;-145.06;100.00;56084.22;10467454;28;20038;-67
2023/09/14 00:58:59;;;;;;;0.10;0.10;;;;;;;-145.06;100.00;56128.78;10461652;28;20055;-68
2023/09/14 01:04:00;;;;;;;0.00;0.00;;;;;;;-145.06;100.00;56132.84;10450989;28;20052;-67
2023/09/14 01:09:01;;;;;;;0.00;0.00;;;;;;;-145.06;100.00;56122.72;10469563;28;20028;-68
2023/09/14 01:14:17;;;;;;;0.00;0.00;;;;;;;-145.06;100.00;56165.25;10462802;28;20025;-68
2023/09/14 01:19:39;;;;;;;0.00;0.00;;;;;;;-145.06;100.00;56132.84;10441915;28;20029;-68
2023/09/14 01:24:50;;;;;;;0.00;0.00;;;;;;;-145.06;100.00;56106.50;10464171;28;20111;-67
2023/09/14 01:29:51;;;;;;;0.00;0.00;;;;;;;-145.06;100.00;56128.78;10453300;28;20486;-67
2023/09/14 01:34:52;;;;;;;0.10;0.10;;;;;;;-145.06;100.00;56128.78;10476169;28;20021;-67
2023/09/14 01:39:53;;;;;;;0.00;0.00;;;;;;;-145.06;100.00;56185.53;10478711;28;20028;-67
2023/09/14 01:44:53;;;;;;;0.10;0.10;;;;;;;-145.06;100.00;56169.31;10471289;28;20209;-67
2023/09/14 01:49:54;;;;;;;0.10;0.10;;;;;;;-145.06;100.00;56201.75;10475490;28;20028;-67
2023/09/14 01:54:54;;;;;;;0.10;0.10;;;;;;;-145.06;100.00;56197.69;10466443;28;20024;-68
2023/09/14 01:59:54;;;;;;;0.00;0.00;;;;;;;-145.06;100.00;56199.72;10466604;28;20024;-66
2023/09/14 02:04:54;;;;;;;0.03;0.03;;;;;;;-145.06;100.00;56213.91;10475354;28;20476;-66
2023/09/14 02:09:55;;;;;;;0.00;0.00;;;;;;;-145.06;100.00;56140.94;10469272;28;20081;-66
2023/09/14 02:14:55;;;;;;;0.00;0.00;;;;;;;-145.06;100.00;56153.09;10461344;28;20032;-65
2023/09/14 02:19:55;;;;;;;0.00;0.00;;;;;;;-145.06;100.00;56193.63;10469209;28;20485;-65
2023/09/14 02:24:56;;;;;;;0.10;0.10;;;;;;;-145.06;100.00;56181.47;10469036;28;20113;-65
2023/09/14 02:29:56;;;;;;;0.00;0.00;;;;;;;-145.06;100.00;56122.72;10471746;28;20028;-66
2023/09/14 02:34:56;;;;;;;0.10;0.10;;;;;;;-145.06;100.00;56124.75;10465957;28;20020;-66
2023/09/14 02:39:56;;;;;;;0.10;0.10;;;;;;;-145.06;100.00;56130.81;10468143;28;20051;-66
2023/09/14 02:44:57;;;;;;;0.10;0.10;;;;;;;-145.06;100.00;56136.91;10461691;28;20035;-67
2023/09/14 02:50:00;;;;;;;0.00;0.00;;;;;;;-145.06;100.00;56142.97;10471266;28;20028;-65
2023/09/14 02:55:00;;;;;;;0.10;0.10;;;;;;;-145.06;100.00;56120.69;10468994;28;20024;-67
2023/09/14 03:00:01;;;;;;;0.10;0.10;;;;;;;-145.06;100.00;56132.84;10461654;28;20016;-67
2023/09/14 03:05:01;;;;;;;0.00;0.00;;;;;;;-145.06;100.00;56098.41;10471846;28;20078;-67
2023/09/14 03:10:03;;;;;;;0.10;0.10;;;;;;;-145.06;100.00;56110.56;10458588;28;20477;-66
2023/09/14 03:15:04;;;;;;;0.10;0.10;;;;;;;-145.06;100.00;56118.66;10455234;28;20025;-67
2023/09/14 03:20:06;;;;;;;0.00;0.00;;;;;;;-145.06;100.00;56112.59;10459535;28;20052;-67
2023/09/14 03:25:06;;;;;;;0.10;0.10;;;;;;;-145.06;100.00;56104.47;10464762;28;20074;-66
2023/09/14 03:30:08;;;;;;;0.10;0.10;;;;;;;-145.06;100.00;56100.41;10465032;28;20063;-67
2023/09/14 03:35:08;;;;;;;0.10;0.10;;;;;;;-145.06;100.00;56078.13;10455901;28;20363;-66
2023/09/14 03:40:08;;;;;;;0.10;0.10;;;;;;;-145.06;100.00;56072.06;10468955;28;20021;-66
2023/09/14 03:45:09;;;;;;;0.05;0.05;;;;;;;-145.06;100.00;56080.16;10465675;28;20029;-66
2023/09/14 03:50:10;;;;;;;0.00;0.00;;;;;;;-145.06;100.00;56053.81;10456312;28;20020;-67
2023/09/14 03:55:10;;;;;;;0.00;0.00;;;;;;;-145.06;100.00;56078.13;10471426;28;20455;-67
2023/09/14 04:00:11;;;;;;;0.00;0.00;;;;;;;-145.06;100.00;56072.06;10428312;28;20029;-65
2023/09/14 04:05:17;;;;;;;0.10;0.10;;;;;;;-145.06;100.00;56061.91;10441682;28;20020;-66
2023/09/14 04:10:17;;;;;;;0.10;0.10;;;;;;;-145.06;100.00;56053.81;10461570;28;20031;-66
2023/09/14 04:15:17;;;;;;;0.00;0.00;;;;;;;-145.06;100.00;56063.94;10461062;28;20027;-66
2023/09/14 04:20:18;;;;;;;0.00;0.00;;;;;;;-145.06;100.00;56051.78;10459739;28;20388;-67
2023/09/14 04:25:18;;;;;;;0.00;0.00;;;;;;;-145.06;100.00;56041.66;10460225;28;20029;-66
2023/09/14 04:30:19;;;;;;;0.00;0.00;;;;;;;-145.06;100.00;56039.63;10456219;28;20017;-68
2023/09/14 04:35:19;;;;;;;0.00;0.00;;;;;;;-145.06;100.00;56051.78;10458386;28;20025;-68
2023/09/14 04:40:20;;;;;;;0.10;0.10;;;;;;;-145.06;100.00;56080.16;10453822;28;20059;-68
2023/09/14 04:45:20;;;;;;;0.00;0.00;;;;;;;-145.06;100.00;56023.41;10459608;28;20493;-68
2023/09/14 04:50:20;;;;;;;0.00;0.00;;;;;;;-145.06;100.00;56047.75;10465010;28;20047;-66
2023/09/14 04:55:21;;;;;;;0.00;0.00;;;;;;;-145.06;100.00;56037.59;10465371;28;20450;-66
2023/09/14 05:00:21;;;;;;;0.00;0.00;;;;;;;-145.06;100.00;55986.94;10459052;28;20098;-65
2023/09/14 05:05:22;;;;;;;0.00;0.00;;;;;;;-145.06;100.00;55991.00;10470893;28;20032;-65
2023/09/14 05:10:22;;;;;;;0.10;0.10;;;;;;;-145.06;100.00;55978.84;10440830;28;20025;-65
2023/09/14 05:15:23;;;;;;;0.10;0.10;;;;;;;-145.06;100.00;56005.19;10438437;28;20354;-65
2023/09/14 05:20:23;;;;;;;0.10;0.10;;;;;;;-145.06;100.00;56092.31;10459719;28;20486;-66
2023/09/14 05:25:27;;;;;;;0.10;0.10;;;;;;;-145.06;100.00;56098.41;10454714;28;20261;-65
2023/09/14 05:30:27;;;;;;;0.00;0.00;;;;;;;-145.06;100.00;56189.56;10469905;28;20270;-65
2023/09/14 05:35:28;;;;;;;0.00;0.00;;;;;;;-145.06;96.20;56351.69;10467425;28;20036;-65
2023/09/14 05:40:28;;;;;;;0.10;0.10;;;;;;;-145.06;91.77;56412.47;10455670;28;20028;-66
2023/09/14 05:45:29;;;;;;;0.00;0.00;;;;;;;-145.06;91.87;56367.91;10451974;28;20024;-65
2023/09/14 05:50:29;;;;;;;0.10;0.10;;;;;;;-145.06;90.35;56446.94;10437271;28;20489;-66
2023/09/14 05:55:29;;;;;;;0.10;0.10;;;;;;;-145.06;88.29;56398.28;10460648;28;20096;-66
2023/09/14 06:00:30;;;;;;;0.00;0.00;;;;;;;-145.06;84.31;56590.81;10449364;28;20025;-66
2023/09/14 06:05:30;;;;;;;0.00;0.00;;;;;;;-145.06;77.13;56754.97;10450585;28;20384;-66
2023/09/14 06:10:30;;;;;;;0.00;0.00;;;;;;;-145.06;75.28;56797.53;10449847;28;20025;-66
2023/09/14 06:15:31;;;;;;;0.10;0.10;;;;;;;-145.06;71.61;56917.09;10450228;28;20021;-66
2023/09/14 06:20:31;;;;;;;0.00;0.00;;;;;;;-145.06;66.92;57140.03;10452593;28;20021;-66
2023/09/14 06:25:32;;;;;;;0.00;0.00;;;;;;;-145.06;67.34;57069.09;10475165;28;20021;-67
2023/09/14 06:30:32;;;;;;;0.00;0.00;;;;;;;-145.06;67.34;57054.91;10451742;28;20386;-66
2023/09/14 06:35:32;;;;;;;0.00;0.00;;;;;;;-145.06;66.03;57119.78;10471034;28;20021;-66
2023/09/14 06:40:33;;;;;;;0.00;0.00;;;;;;;-145.06;60.52;57385.28;10467377;28;20493;-66
2023/09/14 06:45:33;;;;;;;0.10;0.10;;;;;;;-145.06;56.44;57640.69;10459875;28;20595;-67
2023/09/14 06:50:33;;;;;;;0.10;0.10;;;;;;;-145.06;55.87;57577.84;10458044;28;20024;-67
2023/09/14 06:55:37;;;;;;;0.00;0.00;;;;;;;-145.06;55.31;57583.94;10459095;28;20021;-66
2023/09/14 07:00:38;;;;;;;0.00;0.00;;;;;;;-145.06;56.32;57431.91;10466507;28;20421;-67
2023/09/14 07:05:38;;;;;;;0.00;0.00;;;;;;;-145.06;54.07;57352.88;10446001;28;20028;-66
2023/09/14 07:10:38;;;;;;;0.00;0.00;;;;;;;-145.06;52.18;57681.25;10464331;28;20199;-67
2023/09/14 07:15:38;;;;;;;0.10;0.10;;;;;;;-145.06;54.35;57624.47;10467607;28;20032;-66
2023/09/14 07:20:39;;;;;;;0.00;0.00;;;;;;;-145.06;53.86;57592.06;10469658;28;20025;-66
2023/09/14 07:25:39;;;;;;;0.10;0.10;;;;;;;-145.06;48.40;57721.78;10461261;28;20028;-66
2023/09/14 07:30:39;;;;;;;0.03;0.03;;;;;;;-145.06;49.91;57604.22;10440836;28;20040;-66
2023/09/14 07:35:40;;;;;;;0.00;0.00;;;;;;;-145.06;48.51;57819.09;10460791;28;20072;-66
2023/09/14 07:40:41;;;;;;;0.10;0.10;;;;;;;-145.06;45.10;58192.09;10428917;28;20091;-66
2023/09/14 07:45:43;;;;;;;0.00;0.00;;;;;;;-145.06;43.39;58435.38;10445208;28;20029;-67
2023/09/14 07:50:43;;;;;;;0.00;0.00;;;;;;;-145.06;45.84;58240.75;10453453;28;20443;-66
2023/09/14 07:55:45;;;;;;;0.10;0.10;;;;;;;-145.06;44.08;58325.91;10425956;28;20104;-66
2023/09/14 08:00:46;;;;;;;0.00;0.00;;;;;;;-145.06;41.97;58273.19;10458180;28;20378;-67
2023/09/14 08:05:47;;;;;;;0.03;0.03;;;;;;;-145.06;45.09;58017.75;10453868;28;20373;-65
2023/09/14 08:10:51;;;;;;;0.00;0.00;;;;;;;-145.06;47.89;57896.13;10478698;28;20199;-67
2023/09/14 08:15:52;;;;;;;0.00;0.00;;;;;;;-145.06;45.66;58033.97;10471328;28;20095;-67
2023/09/14 08:20:52;;;;;;;0.10;0.10;;;;;;;-145.06;48.12;57948.81;10468678;28;20028;-67
2023/09/14 08:25:53;;;;;;;0.10;0.10;;;;;;;-145.06;47.08;57829.22;10468127;28;20025;-66
2023/09/14 08:30:53;;;;;;;0.00;0.00;;;;;;;-145.06;50.45;57618.41;10478196;28;20043;-66
2023/09/14 08:35:54;;;;;;;0.00;0.00;;;;;;;-145.06;53.89;57490.69;10468232;28;20035;-66
2023/09/14 08:40:59;;;;;;;0.05;0.05;;;;;;;-145.06;50.25;57448.13;10457481;28;20032;-65
2023/09/14 08:46:00;;;;;;;0.10;0.10;;;;;;;-145.06;50.35;57581.91;10460078;28;20021;-67
2023/09/14 08:51:02;;;;;;;0.10;0.10;;;;;;;-145.06;48.79;57650.84;10475074;28;20029;-66
2023/09/14 08:56:04;;;;;;;0.10;0.10;;;;;;;-145.06;48.43;57721.78;10462781;28;20079;-65
2023/09/14 09:01:09;;;;;;;0.00;0.00;;;;;;;-145.06;49.81;57810.97;10458976;28;20489;-66
2023/09/14 09:06:12;;;;;;;0.00;0.00;;;;;;;-145.06;49.16;57786.66;10435284;28;20065;-66
2023/09/14 09:11:13;;;;;;;0.10;0.10;;;;;;;-145.06;49.13;57841.38;10447548;28;20017;-65
2023/09/14 09:16:13;;;;;;;0.03;0.03;;;;;;;-145.06;48.10;57956.94;10450585;28;20509;-65
2023/09/14 09:21:25;;;;;;;0.10;0.10;;;;;;;-145.06;43.43;58102.91;10462040;28;20086;-64
2023/09/14 09:26:32;;;;;;;0.00;0.00;;;;;;;-145.06;48.73;58001.53;10458238;28;20128;-65
2023/09/14 09:31:43;;;;;;;0.00;0.00;;;;;;;-145.06;44.75;58111.00;10466729;28;20020;-64
2023/09/14 09:36:44;;;;;;;0.10;0.10;;;;;;;-145.06;43.21;58147.50;10456521;28;20358;-65
2023/09/14 09:41:45;;;;;;;0.00;0.00;;;;;;;-145.06;42.82;58111.00;10450466;28;20017;-64
2023/09/14 09:46:46;;;;;;;0.00;0.00;;;;;;;-145.06;45.46;57942.75;10461926;28;20567;-66
2023/09/14 09:51:48;;;;;;;0.00;0.00;;;;;;;-145.06;49.52;57754.22;10462407;28;20112;-66
2023/09/14 09:56:49;;;;;;;0.00;0.00;;;;;;;-145.06;48.66;57758.28;10467722;28;20020;-66
2023/09/14 10:01:50;;;;;;;0.00;0.00;;;;;;;-145.06;51.14;57768.41;10467866;28;20029;-66
2023/09/14 10:06:52;;;;;;;0.10;0.10;;;;;;;-145.06;50.13;57738.00;10457044;28;20032;-66
2023/09/14 10:11:55;;;;;;;0.00;0.00;;;;;;;-145.06;48.95;57756.25;10471469;28;20392;-66
2023/09/14 10:16:58;;;;;;;0.00;0.00;;;;;;;-145.06;47.81;57879.91;10467649;28;20063;-66
2023/09/14 10:21:59;;;;;;;0.00;0.00;;;;;;;-145.06;46.54;57833.28;10465976;28;20182;-65
2023/09/14 10:27:00;;;;;;;0.00;0.00;;;;;;;-145.06;46.34;57817.06;10457686;28;20163;-66
2023/09/14 10:32:03;;;;;;;0.03;0.03;;;;;;;-145.06;47.04;57762.31;10466175;28;20102;-66
2023/09/14 10:37:07;;;;;;;0.00;0.00;;;;;;;-145.06;49.45;57729.88;10443751;28;20021;-66
2023/09/14 10:42:08;;;;;;;0.00;0.00;;;;;;;-145.06;43.15;57985.31;10454860;28;20167;-66
2023/09/14 10:47:12;;;;;;;0.10;0.10;;;;;;;-145.06;45.76;57851.53;10467177;28;20019;-66
2023/09/14 10:52:12;;;;;;;0.10;0.10;;;;;;;-145.06;47.42;57837.31;10457500;28;20468;-66
2023/09/14 10:57:20;;;;;;;0.00;0.00;;;;;;;-145.06;47.69;57902.19;10467841;28;20012;-65
2023/09/14 11:02:39;;;;;;;0.00;0.00;;;;;;;-145.06;46.15;57782.59;10470775;28;20567;-66
2023/09/14 11:07:40;;;;;;;0.10;0.10;;;;;;;-145.06;47.28;57723.81;10454523;28;20017;-65
2023/09/14 11:12:41;;;;;;;0.00;0.00;;;;;;;-145.06;50.31;57744.06;10470525;28;20194;-65
2023/09/14 11:17:42;;;;;;;0.03;0.03;;;;;;;-145.06;44.03;57843.41;10462369;28;20316;-66
2023/09/14 11:22:43;;;;;;;0.00;0.00;;;;;;;-145.06;47.05;57735.97;10460064;28;20025;-65
2023/09/14 11:27:43;;;;;;;0.10;0.10;;;;;;;-145.06;44.13;57861.66;10470385;28;20025;-65
2023/09/14 11:32:44;;;;;;;0.00;0.00;;;;;;;-145.06;48.55;57742.06;10478231;28;20016;-65
2023/09/14 11:37:46;;;;;;;0.10;0.10;;;;;;;-145.06;48.22;57742.06;10461225;28;20033;-65
2023/09/14 11:43:10;;;;;;;0.00;0.00;;;;;;;-145.06;47.38;57729.88;10474510;28;20468;-66
2023/09/14 11:48:12;;;;;;;0.00;0.00;;;;;;;-145.06;44.86;57780.56;10485943;28;20714;-65
2023/09/14 11:53:18;;;;;;;0.00;0.00;;;;;;;-145.06;51.92;57669.06;10482934;28;20071;-65
2023/09/14 11:58:22;;;;;;;0.00;0.00;;;;;;;-145.06;48.13;57703.53;10474376;28;20052;-65
2023/09/14 12:03:23;;;;;;;0.00;0.00;;;;;;;-145.06;49.86;57669.06;10458841;28;20021;-65
2023/09/14 12:08:23;;;;;;;0.00;0.00;;;;;;;-145.06;49.63;57658.94;10470441;28;20012;-65
2023/09/14 12:13:24;;;;;;;0.00;0.00;;;;;;;-145.06;51.83;57630.56;10485477;28;20761;-65
2023/09/14 12:18:38;;;;;;;0.00;0.00;;;;;;;-145.06;53.03;57494.75;10467439;28;20123;-65
2023/09/14 12:23:41;;;;;;;0.00;0.00;;;;;;;-145.06;54.59;57521.09;10486640;28;20420;-65
2023/09/14 12:28:44;;;;;;;0.00;0.00;;;;;;;-145.06;49.74;57624.47;10487510;28;20021;-65
2023/09/14 12:33:45;;;;;;;0.00;0.00;;;;;;;-145.06;50.17;57620.44;10485563;28;20017;-65
2023/09/14 12:38:47;;;;;;;0.00;0.00;;;;;;;-145.06;53.59;57464.34;10464997;28;20023;-65
2023/09/14 12:43:47;;;;;;;0.00;0.00;;;;;;;-145.06;49.60;57563.66;10443473;28;20525;-65
2023/09/14 12:48:48;;;;;;;0.10;0.10;;;;;;;-145.06;49.32;57579.88;10458176;28;20030;-65
2023/09/14 12:53:48;;;;;;;0.10;0.10;;;;;;;-145.06;49.75;57539.34;10461192;28;20672;-66
2023/09/14 12:58:50;;;;;;;0.00;0.00;;;;;;;-145.06;48.50;57527.19;10469216;28;20028;-65
2023/09/14 13:03:51;;;;;;;0.10;0.10;;;;;;;-145.06;48.91;57431.91;10459166;28;20047;-65
2023/09/14 13:08:52;;;;;;;0.00;0.00;;;;;;;-145.06;51.14;57417.72;10457723;28;20107;-65
2023/09/14 13:13:52;;;;;;;0.00;0.00;;;;;;;-145.06;48.51;57417.72;10464066;28;20039;-65
2023/09/14 13:18:53;;;;;;;0.00;0.00;;;;;;;-145.06;53.39;57332.59;10469308;28;20047;-65
2023/09/14 13:23:55;;;;;;;0.05;0.05;;;;;;;-145.06;51.23;57385.28;10469384;28;20099;-65
2023/09/14 13:28:55;;;;;;;0.10;0.10;;;;;;;-145.06;51.34;57369.06;10477194;28;20028;-65
2023/09/14 13:33:56;;;;;;;0.00;0.00;;;;;;;-145.06;50.61;57393.41;10478231;28;20047;-65
2023/09/14 13:38:57;;;;;;;0.00;0.00;;;;;;;-145.06;51.66;57338.69;10467996;28;20492;-65
2023/09/14 13:43:57;;;;;;;0.00;0.00;;;;;;;-145.06;51.28;57279.91;10485091;28;20150;-66
2023/09/14 13:48:57;;;;;;;0.00;0.00;;;;;;;-145.06;53.37;57255.56;10484503;28;20138;-65
2023/09/14 13:53:57;;;;;;;0.00;0.00;;;;;;;-145.06;56.04;57275.84;10485387;28;20043;-65
2023/09/14 13:58:58;;;;;;;0.10;0.10;;;;;;;-145.06;53.11;57306.25;10471797;28;20025;-65
2023/09/14 14:03:59;;;;;;;0.10;0.10;;;;;;;-145.06;54.45;57271.78;10464498;28;20048;-65
2023/09/14 14:09:00;;;;;;;0.10;0.10;;;;;;;-145.06;53.37;57279.91;10458373;28;20029;-65
2023/09/14 14:14:00;;;;;;;0.00;0.00;;;;;;;-145.06;53.21;57296.09;10470902;28;20025;-65
2023/09/14 14:19:00;;;;;;;0.00;0.00;;;;;;;-145.06;56.41;57235.31;10446928;28;20436;-65
2023/09/14 14:24:02;;;;;;;0.00;0.00;;;;;;;-145.06;56.27;57247.47;10464014;28;20083;-65
2023/09/14 14:29:02;;;;;;;0.00;0.00;;;;;;;-145.06;60.32;57188.69;10438283;28;20119;-65
2023/09/14 14:34:03;;;;;;;0.10;0.10;;;;;;;-145.06;60.71;57196.78;10457472;28;20021;-66
2023/09/14 14:39:03;;;;;;;0.00;0.00;;;;;;;-145.06;60.56;57178.56;10463178;28;20340;-65
2023/09/14 14:44:04;;;;;;;0.10;0.10;;;;;;;-145.06;59.93;57239.34;10464891;28;20032;-65
2023/09/14 14:49:05;;;;;;;0.10;0.10;;;;;;;-145.06;60.01;57265.72;10469542;28;20021;-65
2023/09/14 14:54:06;;;;;;;0.00;0.00;;;;;;;-145.06;62.45;57247.47;10456822;28;20354;-65
2023/09/14 14:59:06;;;;;;;0.00;0.00;;;;;;;-145.06;63.92;57164.38;10471889;28;20496;-65
2023/09/14 15:04:06;;;;;;;0.00;0.00;;;;;;;-145.06;65.52;57142.06;10484772;28;20025;-65
2023/09/14 15:09:07;;;;;;;0.00;0.00;;;;;;;-145.06;65.60;57133.97;10486910;28;20071;-66
2023/09/14 15:14:09;;;;;;;0.00;0.00;;;;;;;-145.06;66.41;57107.63;10487481;28;20108;-63
2023/09/14 15:19:09;;;;;;;0.00;0.00;;;;;;;-145.06;69.02;57065.06;10478088;28;20017;-64
2023/09/14 15:24:10;;;;;;;0.00;0.00;;;;;;;-145.06;64.32;57087.34;10471368;28;20037;-64
2023/09/14 15:29:10;;;;;;;0.10;0.10;;;;;;;-145.06;64.13;57085.31;10470393;28;20012;-65
2023/09/14 15:34:10;;;;;;;0.10;0.10;;;;;;;-145.06;63.93;57067.06;10477983;28;20020;-65
2023/09/14 15:39:11;;;;;;;0.00;0.00;;;;;;;-145.06;60.42;57138.00;10478598;28;20036;-68
2023/09/14 15:44:11;;;;;;;0.10;0.10;;;;;;;-145.06;62.34;57121.81;10470444;28;20012;-66
2023/09/14 15:49:11;;;;;;;0.00;0.00;;;;;;;-145.06;65.14;57044.78;10476608;28;20023;-66
2023/09/14 15:54:14;;;;;;;0.00;0.00;;;;;;;-145.06;65.91;57018.44;10480177;28;20078;-65
2023/09/14 15:59:14;;;;;;;0.10;0.10;;;;;;;-145.06;68.11;57020.47;10462509;28;20397;-65
2023/09/14 16:04:14;;;;;;;0.00;0.00;;;;;;;-145.06;70.32;56955.59;10476297;28;20097;-65
2023/09/14 16:09:15;;;;;;;0.10;0.10;;;;;;;-145.06;69.78;56959.66;10463507;28;20186;-66
2023/09/14 16:14:16;;;;;;;0.00;0.00;;;;;;;-145.06;69.85;56988.03;10464764;28;20048;-66
2023/09/14 16:19:16;;;;;;;0.03;0.03;;;;;;;-145.06;71.56;56949.53;10462836;28;20076;-66
2023/09/14 16:24:17;;;;;;;0.10;0.10;;;;;;;-145.06;73.01;56943.44;10475005;28;20090;-66
2023/09/14 16:29:18;;;;;;;0.10;0.10;;;;;;;-145.06;74.81;56939.38;10474183;28;20533;-66
2023/09/14 16:34:19;;;;;;;0.00;0.00;;;;;;;-145.06;75.00;56921.16;10462735;28;20140;-65
2023/09/14 16:39:19;;;;;;;0.10;0.10;;;;;;;-145.06;74.93;56925.22;10448882;28;20468;-66
2023/09/14 16:44:20;;;;;;;0.07;0.07;;;;;;;-145.06;76.62;56917.09;10463826;28;20028;-66
2023/09/14 16:49:21;;;;;;;0.10;0.10;;;;;;;-145.06;74.90;56892.78;10470680;28;20923;-66
2023/09/14 16:54:30;;;;;;;0.00;0.00;;;;;;;-145.06;76.50;56864.41;10470004;28;20028;-66
2023/09/14 16:59:30;;;;;;;0.00;0.00;;;;;;;-145.06;76.50;56825.91;10476469;28;20081;-66
2023/09/14 17:04:31;;;;;;;0.05;0.05;;;;;;;-145.06;76.62;56850.22;10472025;28;20090;-66
2023/09/14 17:09:31;;;;;;;0.10;0.10;;;;;;;-145.06;81.44;56805.63;10464073;28;20466;-67
2023/09/14 17:14:32;;;;;;;0.10;0.10;;;;;;;-145.06;83.77;56750.91;10471095;28;20032;-65
2023/09/14 17:19:33;;;;;;;0.10;0.10;;;;;;;-145.06;85.75;56736.72;10455331;28;20378;-65
2023/09/14 17:24:33;;;;;;;0.10;0.10;;;;;;;-145.06;88.11;56682.00;10471558;28;20017;-65
2023/09/14 17:29:33;;;;;;;0.10;0.10;;;;;;;-145.06;93.37;56667.81;10477796;28;20028;-65
2023/09/14 17:34:34;;;;;;;0.10;0.10;;;;;;;-145.06;96.29;56602.97;10465212;28;20067;-65
2023/09/14 17:39:34;;;;;;;0.10;0.10;;;;;;;-145.06;100.00;56566.50;10462058;28;20335;-65
2023/09/14 17:44:35;;;;;;;0.10;0.10;;;;;;;-145.06;100.00;56497.59;10473540;28;20287;-65
2023/09/14 17:49:36;;;;;;;0.10;0.10;;;;;;;-145.06;100.00;56485.44;10472350;28;20477;-65
2023/09/14 17:54:36;;;;;;;0.10;0.10;;;;;;;-145.06;100.00;56487.47;10435363;28;20009;-64
2023/09/14 17:59:36;;;;;;;0.10;0.10;;;;;;;-145.06;100.00;56489.50;10454694;28;20262;-64
2023/09/14 18:04:36;;;;;;;0.00;0.00;;;;;;;-145.06;100.00;56455.03;10451093;28;20335;-65
2023/09/14 18:09:38;;;;;;;0.10;0.10;;;;;;;-145.06;100.00;56420.59;10415265;28;20028;-66
2023/09/14 18:14:38;;;;;;;0.10;0.10;;;;;;;-145.06;100.00;56410.47;10463045;28;20024;-65
2023/09/14 18:19:38;;;;;;;0.00;0.00;;;;;;;-145.06;100.00;56361.81;10478840;28;20479;-65
2023/09/14 18:24:38;;;;;;;0.10;0.10;;;;;;;-145.06;100.00;56351.69;10474169;28;20341;-65
2023/09/14 18:29:39;;;;;;;0.00;0.00;;;;;;;-145.06;100.00;56367.91;10487009;28;20338;-65
2023/09/14 18:34:40;;;;;;;0.00;0.00;;;;;;;-145.06;100.00;56323.31;10460545;28;20094;-65
2023/09/14 18:39:40;;;;;;;0.10;0.10;;;;;;;-145.06;100.00;56311.16;10477362;28;20192;-65
2023/09/14 18:44:41;;;;;;;0.10;0.10;;;;;;;-145.06;100.00;56301.03;10489843;28;20386;-65
2023/09/14 18:49:41;;;;;;;0.10;0.10;;;;;;;-145.06;100.00;56286.84;10478012;28;20024;-65
2023/09/14 18:54:42;;;;;;;0.10;0.10;;;;;;;-145.06;100.00;56311.16;10468257;28;20040;-65
2023/09/14 18:59:42;;;;;;;0.10;0.10;;;;;;;-145.06;100.00;56288.88;10473665;28;20158;-65
2023/09/14 19:04:42;;;;;;;0.10;0.10;;;;;;;-145.06;100.00;56290.91;10484131;28;20021;-66
2023/09/14 19:09:44;;;;;;;0.00;0.00;;;;;;;-145.06;100.00;56266.56;10472135;28;20169;-66
2023/09/14 19:14:44;;;;;;;0.00;0.00;;;;;;;-145.06;100.00;56278.75;10482444;28;20020;-66
2023/09/14 19:19:44;;;;;;;0.03;0.03;;;;;;;-145.06;100.00;56280.75;10484072;28;20734;-66
2023/09/14 19:24:45;;;;;;;0.10;0.10;;;;;;;-145.06;100.00;56254.41;10466370;28;20016;-66
2023/09/14 19:29:45;;;;;;;0.10;0.10;;;;;;;-145.06;100.00;56262.53;10459679;28;20017;-66
2023/09/14 19:34:45;;;;;;;0.10;0.10;;;;;;;-145.06;100.00;56254.41;10462773;28;20044;-66
2023/09/14 19:39:47;;;;;;;0.10;0.10;;;;;;;-145.06;100.00;56226.06;10464358;28;20094;-66
2023/09/14 19:44:47;;;;;;;0.10;0.10;;;;;;;-145.06;100.00;56226.06;10460001;28;20100;-66
2023/09/14 19:49:48;;;;;;;0.10;0.10;;;;;;;-145.06;100.00;56250.38;10441058;28;20056;-66
2023/09/14 19:54:48;;;;;;;0.10;0.10;;;;;;;-145.06;100.00;56222.00;10464421;28;20028;-66
2023/09/14 19:59:49;;;;;;;0.00;0.00;;;;;;;-145.06;100.00;56258.47;10453443;28;20424;-66
2023/09/14 20:04:49;;;;;;;0.03;0.03;;;;;;;-145.06;100.00;56201.75;10463346;28;21181;-66
2023/09/14 20:09:49;;;;;;;0.00;0.00;;;;;;;-145.06;100.00;56230.09;10456101;28;20033;-66
2023/09/14 20:14:50;;;;;;;0.10;0.10;;;;;;;-145.06;100.00;56219.97;10459153;28;20099;-66
2023/09/14 20:19:50;;;;;;;0.10;0.10;;;;;;;-145.06;100.00;56230.09;10446876;28;20186;-66
2023/09/14 20:24:54;;;;;;;0.10;0.10;;;;;;;-145.06;100.00;56217.94;10452944;28;20017;-66
2023/09/14 20:29:54;;;;;;;0.10;0.10;;;;;;;-145.06;100.00;56226.06;10465761;28;20066;-66
2023/09/14 20:34:54;;;;;;;0.10;0.10;;;;;;;-145.06;100.00;56226.06;10459042;28;20266;-66
2023/09/14 20:39:55;;;;;;;0.10;0.10;;;;;;;-145.06;100.00;56213.91;10463890;28;20036;-65
2023/09/14 20:44:55;;;;;;;0.10;0.10;;;;;;;-145.06;100.00;56199.72;10477852;28;20089;-66
2023/09/14 20:49:55;;;;;;;0.10;0.10;;;;;;;-145.06;100.00;56169.31;10465876;28;20024;-66
2023/09/14 20:54:57;;;;;;;0.10;0.10;;;;;;;-145.06;100.00;56189.56;10468979;28;20439;-65
2023/09/14 20:59:58;;;;;;;0.10;0.10;;;;;;;-145.06;100.00;56179.44;10471223;28;20020;-66
2023/09/14 21:04:59;;;;;;;0.10;0.10;;;;;;;-145.06;100.00;56179.44;10458796;28;20196;-66
2023/09/14 21:10:00;;;;;;;0.10;0.10;;;;;;;-145.06;100.00;56185.53;10457206;28;20040;-65
2023/09/14 21:15:00;;;;;;;0.10;0.10;;;;;;;-145.06;100.00;56157.16;10465955;28;20028;-65
2023/09/14 21:20:01;;;;;;;0.10;0.10;;;;;;;-145.06;100.00;56177.41;10467280;28;20524;-65
2023/09/14 21:25:01;;;;;;;0.10;0.10;;;;;;;-145.06;100.00;56173.38;10478353;28;20021;-65
2023/09/14 21:30:04;;;;;;;0.00;0.00;;;;;;;-145.06;100.00;56167.28;10467529;28;20031;-67
2023/09/14 21:35:05;;;;;;;0.00;0.00;;;;;;;-145.06;100.00;56167.28;10471037;28;20013;-67
2023/09/14 21:40:07;;;;;;;0.00;0.00;;;;;;;-145.06;100.00;56201.75;10446816;28;20028;-67
2023/09/14 21:45:07;;;;;;;0.03;0.03;;;;;;;-145.06;100.00;56171.34;10476107;28;20043;-66
2023/09/14 21:50:08;;;;;;;0.00;0.00;;;;;;;-145.06;100.00;56145.00;10483190;28;20047;-66
2023/09/14 21:55:09;;;;;;;0.00;0.00;;;;;;;-145.06;100.00;56157.16;10461655;28;20020;-66
2023/09/14 22:00:17;;;;;;;0.10;0.10;;;;;;;-145.06;100.00;56151.06;10488881;28;20489;-66
2023/09/14 22:05:18;;;;;;;0.00;0.00;;;;;;;-145.06;100.00;56153.09;10481777;28;20043;-66
2023/09/14 22:10:18;;;;;;;0.10;0.10;;;;;;;-145.06;100.00;56157.16;10489582;28;20021;-66
2023/09/14 22:15:21;;;;;;;0.00;0.00;;;;;;;-145.06;100.00;56193.63;10490517;28;20330;-66
2023/09/14 22:20:21;;;;;;;0.03;0.03;;;;;;;-145.06;100.00;56161.22;10478787;28;20043;-66
2023/09/14 22:25:22;;;;;;;0.00;0.00;;;;;;;-145.06;100.00;56124.75;10475036;28;20047;-66
2023/09/14 22:30:23;;;;;;;0.10;0.10;;;;;;;-145.06;100.00;56110.56;10480132;28;20024;-66
2023/09/14 22:35:23;;;;;;;0.00;0.00;;;;;;;-145.06;100.00;56138.91;10462041;28;20017;-66
2023/09/14 22:40:24;;;;;;;0.00;0.00;;;;;;;-145.06;100.00;56100.41;10479832;28;20045;-66